createdAt,value
2023-05-14T00:00:29.865Z,0.00
2023-05-14T00:01:29.779Z,0.00
2023-05-14T00:02:30.068Z,0.00
2023-05-14T00:03:30.019Z,0.00
2023-05-14T00:04:29.764Z,0.00
2023-05-14T00:05:29.715Z,0.00
2023-05-14T00:06:29.715Z,0.00
2023-05-14T00:07:29.739Z,0.00
2023-05-14T00:08:29.707Z,0.00
2023-05-14T00:09:29.701Z,0.00
2023-05-14T00:10:29.717Z,0.00
2023-05-14T00:11:29.651Z,0.00
2023-05-14T00:12:29.651Z,0.00
2023-05-14T00:13:29.643Z,0.00
2023-05-14T00:14:29.582Z,0.00
2023-05-14T00:15:30.039Z,0.00
2023-05-14T00:16:29.668Z,0.00
2023-05-14T00:17:29.585Z,0.00
2023-05-14T00:18:29.592Z,0.00
2023-05-14T00:19:29.553Z,0.00
2023-05-14T00:20:29.546Z,0.00
2023-05-14T00:21:29.543Z,0.00
2023-05-14T00:22:29.542Z,0.00
2023-05-14T00:23:29.890Z,0.00
2023-05-14T00:24:29.493Z,0.00
2023-05-14T00:25:29.465Z,0.00
2023-05-14T00:26:30.062Z,0.00
2023-05-14T00:27:29.506Z,0.00
2023-05-14T00:28:29.490Z,0.00
2023-05-14T00:29:29.429Z,0.00
2023-05-14T00:30:29.421Z,0.00
2023-05-14T00:31:29.493Z,0.00
2023-05-14T00:32:29.424Z,0.00
2023-05-14T00:33:29.378Z,0.00
2023-05-14T00:34:29.427Z,0.00
2023-05-14T00:35:29.351Z,0.00
2023-05-14T00:36:29.372Z,0.00
2023-05-14T00:37:29.513Z,0.00
2023-05-14T00:38:29.335Z,0.00
2023-05-14T00:39:29.313Z,0.00
2023-05-14T00:40:29.512Z,0.00
2023-05-14T00:41:29.327Z,0.00
2023-05-14T00:42:29.373Z,0.00
2023-05-14T00:43:29.270Z,0.00
2023-05-14T00:44:29.461Z,0.00
2023-05-14T00:45:29.263Z,0.00
2023-05-14T00:46:29.305Z,0.00
2023-05-14T00:47:29.269Z,0.00
2023-05-14T00:48:29.398Z,0.00
2023-05-14T00:49:29.208Z,0.00
2023-05-14T00:50:29.205Z,0.00
2023-05-14T00:51:29.822Z,0.00
2023-05-14T00:52:29.227Z,0.00
2023-05-14T00:53:29.218Z,0.00
2023-05-14T00:54:29.332Z,0.00
2023-05-14T00:55:29.133Z,0.00
2023-05-14T00:56:29.171Z,0.00
2023-05-14T00:57:29.352Z,0.00
2023-05-14T00:58:29.470Z,0.00
2023-05-14T00:59:29.077Z,0.00
2023-05-14T01:00:29.169Z,0.00
2023-05-14T01:01:29.132Z,0.00
2023-05-14T01:02:29.148Z,0.00
2023-05-14T01:03:29.164Z,0.00
2023-05-14T01:04:29.099Z,0.00
2023-05-14T01:05:29.019Z,0.00
2023-05-14T01:06:29.028Z,0.00
2023-05-14T01:07:29.011Z,0.00
2023-05-14T01:08:28.995Z,0.00
2023-05-14T01:09:28.957Z,0.00
2023-05-14T01:10:29.062Z,0.00
2023-05-14T01:11:28.929Z,0.00
2023-05-14T01:12:28.962Z,0.00
2023-05-14T01:13:28.904Z,0.00
2023-05-14T01:14:28.933Z,0.00
2023-05-14T01:15:28.919Z,0.00
2023-05-14T01:16:29.070Z,0.00
2023-05-14T01:17:28.950Z,0.00
2023-05-14T01:18:28.908Z,0.00
2023-05-14T01:19:28.982Z,0.00
2023-05-14T01:20:28.883Z,0.00
2023-05-14T01:21:28.832Z,0.00
2023-05-14T01:22:28.834Z,0.00
2023-05-14T01:23:29.145Z,0.00
2023-05-14T01:24:29.025Z,0.00
2023-05-14T01:25:29.023Z,0.00
2023-05-14T01:26:29.342Z,0.00
2023-05-14T01:27:28.760Z,0.00
2023-05-14T01:28:28.771Z,0.00
2023-05-14T01:29:28.730Z,0.00
2023-05-14T01:30:28.756Z,0.00
2023-05-14T01:31:28.777Z,0.00
2023-05-14T01:32:28.810Z,0.00
2023-05-14T01:33:28.703Z,0.00
2023-05-14T01:34:28.702Z,0.00
2023-05-14T01:35:28.653Z,0.00
2023-05-14T01:36:28.653Z,0.00
2023-05-14T01:37:29.121Z,0.00
2023-05-14T01:38:28.681Z,0.00
2023-05-14T01:39:28.643Z,0.00
2023-05-14T01:40:28.611Z,0.00
2023-05-14T01:41:28.577Z,0.00
2023-05-14T01:42:28.622Z,0.00
2023-05-14T01:43:29.115Z,0.00
2023-05-14T01:44:29.085Z,0.00
2023-05-14T01:45:28.560Z,0.00
2023-05-14T01:46:28.617Z,0.00
2023-05-14T01:47:28.568Z,0.00
2023-05-14T01:48:28.525Z,0.00
2023-05-14T01:49:28.493Z,0.00
2023-05-14T01:50:28.514Z,0.00
2023-05-14T01:51:28.472Z,0.00
2023-05-14T01:52:28.484Z,0.00
2023-05-14T01:53:28.438Z,0.00
2023-05-14T01:54:28.459Z,0.00
2023-05-14T01:55:28.403Z,0.00
2023-05-14T01:56:28.475Z,0.00
2023-05-14T01:57:28.407Z,0.00
2023-05-14T01:58:28.398Z,0.00
2023-05-14T01:59:28.459Z,0.00
2023-05-14T02:00:28.393Z,0.00
2023-05-14T02:01:28.388Z,0.00
2023-05-14T02:02:28.407Z,0.00
2023-05-14T02:03:28.360Z,0.00
2023-05-14T02:04:28.416Z,0.00
2023-05-14T02:05:28.478Z,0.00
2023-05-14T02:06:28.305Z,0.00
2023-05-14T02:07:28.297Z,0.00
2023-05-14T02:08:28.319Z,0.00
2023-05-14T02:09:28.619Z,0.00
2023-05-14T02:10:28.290Z,0.00
2023-05-14T02:11:28.224Z,0.00
2023-05-14T02:12:28.277Z,0.00
2023-05-14T02:13:28.215Z,0.00
2023-05-14T02:14:28.221Z,0.00
2023-05-14T02:15:28.241Z,0.00
2023-05-14T02:16:28.252Z,0.00
2023-05-14T02:17:28.223Z,0.00
2023-05-14T02:18:28.410Z,0.00
2023-05-14T02:19:28.143Z,0.00
2023-05-14T02:20:28.240Z,0.00
2023-05-14T02:21:28.147Z,0.00
2023-05-14T02:22:28.135Z,0.00
2023-05-14T02:23:40.476Z,0.00
2023-05-14T02:24:29.142Z,0.00
2023-05-14T02:25:28.204Z,0.00
2023-05-14T02:26:28.239Z,0.00
2023-05-14T02:27:28.047Z,0.00
2023-05-14T02:28:28.057Z,0.00
2023-05-14T02:29:28.067Z,0.00
2023-05-14T02:30:28.030Z,0.00
2023-05-14T02:31:28.026Z,0.00
2023-05-14T02:32:28.206Z,0.00
2023-05-14T02:33:28.026Z,0.00
2023-05-14T02:34:28.176Z,0.00
2023-05-14T02:35:28.287Z,0.00
2023-05-14T02:36:27.997Z,0.00
2023-05-14T02:37:27.968Z,0.00
2023-05-14T02:38:27.979Z,0.00
2023-05-14T02:39:27.935Z,0.00
2023-05-14T02:40:27.921Z,0.00
2023-05-14T02:41:27.905Z,0.00
2023-05-14T02:42:27.929Z,0.00
2023-05-14T02:43:27.872Z,0.00
2023-05-14T02:44:28.035Z,0.00
2023-05-14T02:45:28.277Z,0.00
2023-05-14T02:46:28.126Z,0.00
2023-05-14T02:47:27.873Z,0.00
2023-05-14T02:48:27.820Z,0.00
2023-05-14T02:49:27.828Z,0.00
2023-05-14T02:50:27.803Z,0.00
2023-05-14T02:51:27.770Z,0.00
2023-05-14T02:52:27.841Z,0.00
2023-05-14T02:53:27.765Z,0.00
2023-05-14T02:54:27.784Z,0.00
2023-05-14T02:55:27.764Z,0.00
2023-05-14T02:56:27.742Z,0.00
2023-05-14T02:57:27.706Z,0.00
2023-05-14T02:58:28.523Z,0.00
2023-05-14T02:59:27.714Z,0.00
2023-05-14T03:00:27.685Z,0.00
2023-05-14T03:01:27.712Z,0.00
2023-05-14T03:02:27.742Z,0.00
2023-05-14T03:03:27.686Z,0.00
2023-05-14T03:04:27.637Z,0.00
2023-05-14T03:05:27.612Z,0.00
2023-05-14T03:06:27.639Z,0.00
2023-05-14T03:07:27.591Z,0.00
2023-05-14T03:08:27.805Z,0.00
2023-05-14T03:09:27.584Z,0.00
2023-05-14T03:10:27.598Z,4.00
2023-05-14T03:11:27.541Z,4.00
2023-05-14T03:12:27.560Z,0.00
2023-05-14T03:13:27.576Z,0.00
2023-05-14T03:14:27.543Z,4.00
2023-05-14T03:15:27.562Z,4.00
2023-05-14T03:16:27.581Z,4.00
2023-05-14T03:17:27.517Z,4.00
2023-05-14T03:18:27.569Z,8.00
2023-05-14T03:19:27.492Z,8.00
2023-05-14T03:20:27.463Z,4.00
2023-05-14T03:21:27.463Z,8.00
2023-05-14T03:22:27.449Z,8.00
2023-05-14T03:23:27.442Z,12.00
2023-05-14T03:24:27.525Z,12.00
2023-05-14T03:25:27.410Z,16.00
2023-05-14T03:26:27.828Z,16.00
2023-05-14T03:27:27.515Z,20.00
2023-05-14T03:28:27.390Z,24.00
2023-05-14T03:29:27.404Z,24.00
2023-05-14T03:30:27.443Z,24.00
2023-05-14T03:31:27.386Z,32.00
2023-05-14T03:32:27.392Z,32.00
2023-05-14T03:33:27.300Z,36.00
2023-05-14T03:34:27.312Z,44.00
2023-05-14T03:35:27.501Z,48.00
2023-05-14T03:36:27.316Z,52.00
2023-05-14T03:37:27.293Z,56.00
2023-05-14T03:38:27.286Z,60.00
2023-05-14T03:39:27.251Z,68.00
2023-05-14T03:40:27.252Z,72.00
2023-05-14T03:41:27.334Z,80.00
2023-05-14T03:42:27.274Z,88.00
2023-05-14T03:43:27.212Z,92.00
2023-05-14T03:44:27.212Z,104.00
2023-05-14T03:45:27.279Z,112.00
2023-05-14T03:46:27.551Z,120.00
2023-05-14T03:47:27.172Z,128.00
2023-05-14T03:48:27.383Z,136.00
2023-05-14T03:49:27.125Z,148.00
2023-05-14T03:50:27.139Z,160.00
2023-05-14T03:51:27.086Z,168.00
2023-05-14T03:52:27.114Z,180.00
2023-05-14T03:53:27.130Z,192.00
2023-05-14T03:54:27.098Z,200.00
2023-05-14T03:55:27.054Z,216.00
2023-05-14T03:56:27.076Z,224.00
2023-05-14T03:57:27.113Z,240.00
2023-05-14T03:58:27.049Z,256.00
2023-05-14T03:59:27.009Z,268.00
2023-05-14T04:00:27.561Z,280.00
2023-05-14T04:01:27.168Z,296.00
2023-05-14T04:02:27.070Z,308.00
2023-05-14T04:03:27.075Z,324.00
2023-05-14T04:04:27.249Z,336.00
2023-05-14T04:05:26.976Z,352.00
2023-05-14T04:06:27.103Z,364.00
2023-05-14T04:07:27.090Z,380.00
2023-05-14T04:08:27.025Z,396.00
2023-05-14T04:09:27.052Z,412.00
2023-05-14T04:10:26.943Z,424.00
2023-05-14T04:11:26.907Z,440.00
2023-05-14T04:12:27.051Z,456.00
2023-05-14T04:13:27.140Z,468.00
2023-05-14T04:14:27.045Z,484.00
2023-05-14T04:15:26.840Z,500.00
2023-05-14T04:16:26.926Z,512.00
2023-05-14T04:17:26.928Z,532.00
2023-05-14T04:18:26.837Z,544.00
2023-05-14T04:19:26.790Z,560.00
2023-05-14T04:20:26.841Z,576.00
2023-05-14T04:21:26.784Z,588.00
2023-05-14T04:22:26.789Z,604.00
2023-05-14T04:23:26.742Z,616.00
2023-05-14T04:24:26.780Z,632.00
2023-05-14T04:25:26.707Z,644.00
2023-05-14T04:26:26.734Z,656.00
2023-05-14T04:27:26.723Z,668.00
2023-05-14T04:28:26.732Z,680.00
2023-05-14T04:29:26.722Z,696.00
2023-05-14T04:30:26.710Z,708.00
2023-05-14T04:31:26.691Z,720.00
2023-05-14T04:32:26.714Z,728.00
2023-05-14T04:33:26.642Z,744.00
2023-05-14T04:34:26.689Z,756.00
2023-05-14T04:35:26.601Z,768.00
2023-05-14T04:36:26.642Z,780.00
2023-05-14T04:37:26.619Z,796.00
2023-05-14T04:38:26.607Z,804.00
2023-05-14T04:39:26.997Z,816.00
2023-05-14T04:40:26.869Z,828.00
2023-05-14T04:41:26.575Z,836.00
2023-05-14T04:42:26.563Z,848.00
2023-05-14T04:43:26.547Z,860.00
2023-05-14T04:44:26.514Z,872.00
2023-05-14T04:45:26.531Z,884.00
2023-05-14T04:46:26.709Z,892.00
2023-05-14T04:47:26.535Z,904.00
2023-05-14T04:48:26.820Z,916.00
2023-05-14T04:49:26.508Z,928.00
2023-05-14T04:50:26.512Z,940.00
2023-05-14T04:51:26.465Z,952.00
2023-05-14T04:52:26.412Z,1000.00
2023-05-14T04:53:26.500Z,1056.00
2023-05-14T04:54:26.578Z,1080.00
2023-05-14T04:55:26.610Z,1092.00
2023-05-14T04:56:26.598Z,1104.00
2023-05-14T04:57:26.385Z,1116.00
2023-05-14T04:58:26.778Z,1132.00
2023-05-14T04:59:26.445Z,1144.00
2023-05-14T05:00:26.954Z,1156.00
2023-05-14T05:01:27.883Z,1168.00
2023-05-14T05:02:26.343Z,1176.00
2023-05-14T05:03:27.067Z,1188.00
2023-05-14T05:04:26.356Z,1200.00
2023-05-14T05:05:26.488Z,1212.00
2023-05-14T05:06:26.482Z,1224.00
2023-05-14T05:07:26.495Z,1232.00
2023-05-14T05:08:26.487Z,1240.00
2023-05-14T05:09:26.528Z,1252.00
2023-05-14T05:10:26.591Z,1256.00
2023-05-14T05:11:26.233Z,1268.00
2023-05-14T05:12:26.221Z,1280.00
2023-05-14T05:13:26.213Z,1292.00
2023-05-14T05:14:26.183Z,1300.00
2023-05-14T05:15:26.734Z,1308.00
2023-05-14T05:16:26.294Z,1316.00
2023-05-14T05:17:26.190Z,1324.00
2023-05-14T05:18:26.213Z,1336.00
2023-05-14T05:19:35.661Z,1340.00
2023-05-14T05:20:27.149Z,1348.00
2023-05-14T05:21:26.119Z,1356.00
2023-05-14T05:22:26.103Z,1368.00
2023-05-14T05:23:26.110Z,1376.00
2023-05-14T05:24:26.047Z,1384.00
2023-05-14T05:25:26.088Z,1392.00
2023-05-14T05:26:26.140Z,1400.00
2023-05-14T05:27:26.076Z,1404.00
2023-05-14T05:28:26.012Z,1416.00
2023-05-14T05:29:26.029Z,1420.00
2023-05-14T05:30:26.212Z,1432.00
2023-05-14T05:31:26.063Z,1444.00
2023-05-14T05:32:26.008Z,1456.00
2023-05-14T05:33:26.014Z,1464.00
2023-05-14T05:34:25.957Z,1468.00
2023-05-14T05:35:25.981Z,1480.00
2023-05-14T05:36:25.997Z,1484.00
2023-05-14T05:37:25.922Z,1488.00
2023-05-14T05:38:25.891Z,1492.00
2023-05-14T05:39:25.898Z,1500.00
2023-05-14T05:40:26.003Z,1500.00
2023-05-14T05:41:25.900Z,1508.00
2023-05-14T05:42:25.840Z,1512.00
2023-05-14T05:43:25.861Z,1512.00
2023-05-14T05:44:25.820Z,1516.00
2023-05-14T05:45:25.836Z,1516.00
2023-05-14T05:46:25.879Z,1516.00
2023-05-14T05:47:25.819Z,1520.00
2023-05-14T05:48:25.789Z,1524.00
2023-05-14T05:49:26.271Z,1528.00
2023-05-14T05:50:26.256Z,1528.00
2023-05-14T05:51:25.781Z,1532.00
2023-05-14T05:52:25.814Z,1532.00
2023-05-14T05:53:25.770Z,1536.00
2023-05-14T05:54:25.718Z,1536.00
2023-05-14T05:55:25.747Z,1536.00
2023-05-14T05:56:25.672Z,1540.00
2023-05-14T05:57:26.403Z,1540.00
2023-05-14T05:58:25.652Z,1540.00
2023-05-14T05:59:25.709Z,1540.00
2023-05-14T06:00:26.045Z,1540.00
2023-05-14T06:01:25.676Z,1540.00
2023-05-14T06:02:25.655Z,1540.00
2023-05-14T06:03:25.678Z,1540.00
2023-05-14T06:04:25.584Z,1540.00
2023-05-14T06:05:25.680Z,1540.00
2023-05-14T06:06:25.579Z,1540.00
2023-05-14T06:07:25.573Z,1540.00
2023-05-14T06:08:25.567Z,1552.00
2023-05-14T06:09:25.570Z,1548.00
2023-05-14T06:10:26.103Z,1556.00
2023-05-14T06:11:25.979Z,1568.00
2023-05-14T06:12:25.548Z,1584.00
2023-05-14T06:13:25.531Z,1604.00
2023-05-14T06:14:25.485Z,1640.00
2023-05-14T06:15:25.503Z,1676.00
2023-05-14T06:16:25.546Z,1720.00
2023-05-14T06:17:25.721Z,1776.00
2023-05-14T06:18:25.509Z,1848.00
2023-05-14T06:19:25.459Z,1932.00
2023-05-14T06:20:25.681Z,2028.00
2023-05-14T06:21:25.464Z,2132.00
2023-05-14T06:22:25.456Z,2236.00
2023-05-14T06:23:25.421Z,2304.00
2023-05-14T06:24:25.379Z,2248.00
2023-05-14T06:25:25.397Z,2204.00
2023-05-14T06:26:25.976Z,2152.00
2023-05-14T06:27:25.361Z,2112.00
2023-05-14T06:28:25.340Z,2068.00
2023-05-14T06:29:25.361Z,2012.00
2023-05-14T06:30:25.599Z,1956.00
2023-05-14T06:31:25.349Z,1948.00
2023-05-14T06:32:25.387Z,2004.00
2023-05-14T06:33:25.343Z,2084.00
2023-05-14T06:34:25.267Z,2196.00
2023-05-14T06:35:25.275Z,2368.00
2023-05-14T06:36:25.251Z,2472.00
2023-05-14T06:37:25.272Z,2496.00
2023-05-14T06:38:25.227Z,2512.00
2023-05-14T06:39:25.265Z,2512.00
2023-05-14T06:40:25.405Z,2488.00
2023-05-14T06:41:25.233Z,2464.00
2023-05-14T06:42:25.181Z,2384.00
2023-05-14T06:43:25.192Z,2320.00
2023-05-14T06:44:25.175Z,2308.00
2023-05-14T06:45:25.156Z,2256.00
2023-05-14T06:46:25.117Z,2212.00
2023-05-14T06:47:25.229Z,2116.00
2023-05-14T06:48:25.190Z,2052.00
2023-05-14T06:49:25.178Z,2036.00
2023-05-14T06:50:25.265Z,2040.00
2023-05-14T06:51:25.264Z,2040.00
2023-05-14T06:52:25.262Z,2012.00
2023-05-14T06:53:25.146Z,1976.00
2023-05-14T06:54:25.047Z,1944.00
2023-05-14T06:55:25.049Z,1924.00
2023-05-14T06:56:24.999Z,1840.00
2023-05-14T06:57:25.015Z,1836.00
2023-05-14T06:58:25.018Z,1892.00
2023-05-14T06:59:24.983Z,1924.00
2023-05-14T07:00:25.226Z,1936.00
2023-05-14T07:01:25.036Z,1960.00
2023-05-14T07:02:24.965Z,1988.00
2023-05-14T07:03:25.706Z,2012.00
2023-05-14T07:04:24.928Z,2036.00
2023-05-14T07:05:25.356Z,2076.00
2023-05-14T07:06:24.941Z,2132.00
2023-05-14T07:07:24.901Z,2200.00
2023-05-14T07:08:24.952Z,2268.00
2023-05-14T07:09:24.895Z,2376.00
2023-05-14T07:10:26.569Z,2480.00
2023-05-14T07:11:26.094Z,2568.00
2023-05-14T07:12:25.088Z,2624.00
2023-05-14T07:13:27.590Z,2652.00
2023-05-14T07:14:24.823Z,2680.00
2023-05-14T07:15:24.813Z,2696.00
2023-05-14T07:16:25.043Z,2704.00
2023-05-14T07:17:24.956Z,2660.00
2023-05-14T07:18:24.866Z,2636.00
2023-05-14T07:19:24.769Z,2600.00
2023-05-14T07:20:25.011Z,2592.00
2023-05-14T07:21:24.750Z,2532.00
2023-05-14T07:22:24.710Z,2460.00
2023-05-14T07:23:24.730Z,2360.00
2023-05-14T07:24:24.724Z,2340.00
2023-05-14T07:25:24.738Z,2328.00
2023-05-14T07:26:24.704Z,2328.00
2023-05-14T07:27:24.665Z,2340.00
2023-05-14T07:28:24.639Z,2392.00
2023-05-14T07:29:24.656Z,2340.00
2023-05-14T07:30:24.997Z,2492.00
2023-05-14T07:31:24.669Z,2580.00
2023-05-14T07:32:24.654Z,2680.00
2023-05-14T07:33:24.625Z,2780.00
2023-05-14T07:34:24.552Z,2812.00
2023-05-14T07:35:31.650Z,2784.00
2023-05-14T07:36:25.288Z,2724.00
2023-05-14T07:37:24.536Z,2680.00
2023-05-14T07:38:25.247Z,2600.00
2023-05-14T07:39:25.401Z,2608.00
2023-05-14T07:40:24.668Z,2664.00
2023-05-14T07:41:24.538Z,2680.00
2023-05-14T07:42:35.394Z,2644.00
2023-05-14T07:43:25.509Z,2520.00
2023-05-14T07:44:24.472Z,2492.00
2023-05-14T07:45:24.653Z,2416.00
2023-05-14T07:46:24.790Z,2464.00
2023-05-14T07:47:24.526Z,2448.00
2023-05-14T07:48:24.564Z,2392.00
2023-05-14T07:49:24.444Z,2916.00
2023-05-14T07:50:24.714Z,3084.00
2023-05-14T07:51:24.455Z,2904.00
2023-05-14T07:52:24.384Z,2820.00
2023-05-14T07:53:24.955Z,2888.00
2023-05-14T07:54:24.375Z,2932.00
2023-05-14T07:55:24.390Z,3136.00
2023-05-14T07:56:24.333Z,3228.00
2023-05-14T07:57:24.622Z,3292.00
2023-05-14T07:58:24.287Z,3420.00
2023-05-14T07:59:24.325Z,3572.00
2023-05-14T08:00:24.555Z,3552.00
2023-05-14T08:01:24.371Z,3336.00
2023-05-14T08:02:24.359Z,3204.00
2023-05-14T08:03:24.304Z,3320.00
2023-05-14T08:04:24.272Z,3416.00
2023-05-14T08:05:24.245Z,3048.00
2023-05-14T08:06:24.270Z,2660.00
2023-05-14T08:07:24.238Z,2328.00
2023-05-14T08:08:24.343Z,2256.00
2023-05-14T08:09:24.245Z,2312.00
2023-05-14T08:10:24.244Z,2456.00
2023-05-14T08:11:24.172Z,2736.00
2023-05-14T08:12:24.267Z,2900.00
2023-05-14T08:13:24.245Z,3228.00
2023-05-14T08:14:24.174Z,3404.00
2023-05-14T08:15:27.084Z,3596.00
2023-05-14T08:16:24.954Z,3576.00
2023-05-14T08:17:24.145Z,3756.00
2023-05-14T08:18:24.063Z,3796.00
2023-05-14T08:19:24.076Z,3660.00
2023-05-14T08:20:24.252Z,3632.00
2023-05-14T08:21:24.157Z,3716.00
2023-05-14T08:22:24.019Z,3556.00
2023-05-14T08:23:24.038Z,3360.00
2023-05-14T08:24:24.000Z,3292.00
2023-05-14T08:25:24.028Z,3124.00
2023-05-14T08:26:23.961Z,2856.00
2023-05-14T08:27:24.003Z,2620.00
2023-05-14T08:28:24.030Z,2536.00
2023-05-14T08:29:23.989Z,2644.00
2023-05-14T08:30:24.180Z,2716.00
2023-05-14T08:31:24.027Z,2676.00
2023-05-14T08:32:24.371Z,2488.00
2023-05-14T08:33:24.015Z,2360.00
2023-05-14T08:34:23.943Z,2164.00
2023-05-14T08:35:23.895Z,2532.00
2023-05-14T08:36:23.866Z,2776.00
2023-05-14T08:37:24.067Z,2600.00
2023-05-14T08:38:24.205Z,2528.00
2023-05-14T08:39:23.903Z,2860.00
2023-05-14T08:40:24.180Z,3296.00
2023-05-14T08:41:23.828Z,3664.00
2023-05-14T08:42:23.825Z,3560.00
2023-05-14T08:43:23.832Z,3160.00
2023-05-14T08:44:23.762Z,3156.00
2023-05-14T08:45:23.845Z,2916.00
2023-05-14T08:46:23.755Z,2688.00
2023-05-14T08:47:23.958Z,2532.00
2023-05-14T08:48:23.798Z,2512.00
2023-05-14T08:49:23.738Z,2676.00
2023-05-14T08:50:23.905Z,2892.00
2023-05-14T08:51:23.709Z,2712.00
2023-05-14T08:52:23.693Z,2440.00
2023-05-14T08:53:23.874Z,2288.00
2023-05-14T08:54:23.855Z,2436.00
2023-05-14T08:55:23.810Z,2584.00
2023-05-14T08:56:23.998Z,2500.00
2023-05-14T08:57:24.006Z,2616.00
2023-05-14T08:58:24.002Z,2656.00
2023-05-14T08:59:24.099Z,3424.00
2023-05-14T09:00:24.021Z,3940.00
2023-05-14T09:01:24.172Z,4332.00
2023-05-14T09:02:23.673Z,4308.00
2023-05-14T09:03:24.002Z,3772.00
2023-05-14T09:04:23.560Z,3188.00
2023-05-14T09:05:23.546Z,3248.00
2023-05-14T09:06:23.546Z,3040.00
2023-05-14T09:07:23.701Z,2932.00
2023-05-14T09:08:23.719Z,3116.00
2023-05-14T09:09:23.481Z,2908.00
2023-05-14T09:10:23.756Z,3148.00
2023-05-14T09:11:23.574Z,3476.00
2023-05-14T09:12:23.477Z,3804.00
2023-05-14T09:13:23.435Z,4092.00
2023-05-14T09:14:23.520Z,4188.00
2023-05-14T09:15:23.510Z,4200.00
2023-05-14T09:16:23.488Z,4744.00
2023-05-14T09:17:23.478Z,4720.00
2023-05-14T09:18:23.426Z,4616.00
2023-05-14T09:19:23.400Z,4684.00
2023-05-14T09:20:23.802Z,4344.00
2023-05-14T09:21:23.392Z,3888.00
2023-05-14T09:22:23.405Z,3676.00
2023-05-14T09:23:23.397Z,3160.00
2023-05-14T09:24:23.351Z,3128.00
2023-05-14T09:25:23.294Z,3092.00
2023-05-14T09:26:23.329Z,3152.00
2023-05-14T09:27:23.280Z,3232.00
2023-05-14T09:28:23.293Z,3504.00
2023-05-14T09:29:23.348Z,4216.00
2023-05-14T09:30:23.778Z,5100.00
2023-05-14T09:31:23.338Z,5336.00
2023-05-14T09:32:23.277Z,5224.00
2023-05-14T09:33:23.423Z,5148.00
2023-05-14T09:34:23.646Z,5024.00
2023-05-14T09:35:23.256Z,4968.00
2023-05-14T09:36:23.197Z,4816.00
2023-05-14T09:37:23.170Z,4828.00
2023-05-14T09:38:23.273Z,5116.00
2023-05-14T09:39:23.355Z,5588.00
2023-05-14T09:40:24.089Z,5732.00
2023-05-14T09:41:23.202Z,5328.00
2023-05-14T09:42:23.177Z,5348.00
2023-05-14T09:43:23.095Z,5716.00
2023-05-14T09:44:23.123Z,6436.00
2023-05-14T09:45:23.084Z,6388.00
2023-05-14T09:46:23.088Z,6336.00
2023-05-14T09:47:23.135Z,6388.00
2023-05-14T09:48:23.182Z,6616.00
2023-05-14T09:49:23.346Z,6668.00
2023-05-14T09:50:23.373Z,6232.00
2023-05-14T09:51:23.022Z,5576.00
2023-05-14T09:52:23.033Z,5492.00
2023-05-14T09:53:23.488Z,5744.00
2023-05-14T09:54:22.989Z,4764.00
2023-05-14T09:55:23.425Z,4548.00
2023-05-14T09:56:23.386Z,4796.00
2023-05-14T09:57:22.947Z,5592.00
2023-05-14T09:58:22.987Z,5984.00
2023-05-14T09:59:22.973Z,5856.00
2023-05-14T10:00:23.848Z,5928.00
2023-05-14T10:01:22.993Z,5880.00
2023-05-14T10:02:22.975Z,5576.00
2023-05-14T10:03:22.906Z,5556.00
2023-05-14T10:04:22.943Z,5396.00
2023-05-14T10:05:22.839Z,5624.00
2023-05-14T10:06:22.899Z,6116.00
2023-05-14T10:07:22.832Z,6436.00
2023-05-14T10:08:23.192Z,6316.00
2023-05-14T10:09:22.791Z,5520.00
2023-05-14T10:10:23.606Z,5464.00
2023-05-14T10:11:22.877Z,5000.00
2023-05-14T10:12:23.082Z,4852.00
2023-05-14T10:13:22.795Z,4980.00
2023-05-14T10:14:22.846Z,5452.00
2023-05-14T10:15:23.530Z,5660.00
2023-05-14T10:16:23.032Z,5824.00
2023-05-14T10:17:23.080Z,5648.00
2023-05-14T10:18:22.874Z,5876.00
2023-05-14T10:19:23.021Z,6552.00
2023-05-14T10:20:23.189Z,7204.00
2023-05-14T10:21:22.758Z,7292.00
2023-05-14T10:22:22.832Z,6360.00
2023-05-14T10:23:22.688Z,5764.00
2023-05-14T10:24:22.764Z,5468.00
2023-05-14T10:25:22.761Z,5452.00
2023-05-14T10:26:23.968Z,5860.00
2023-05-14T10:27:22.593Z,6260.00
2023-05-14T10:28:22.651Z,6540.00
2023-05-14T10:29:22.584Z,6460.00
2023-05-14T10:30:22.907Z,6644.00
2023-05-14T10:31:22.612Z,6460.00
2023-05-14T10:32:22.649Z,5828.00
2023-05-14T10:33:22.850Z,5988.00
2023-05-14T10:34:22.525Z,6092.00
2023-05-14T10:35:22.744Z,5528.00
2023-05-14T10:36:23.169Z,5040.00
2023-05-14T10:37:23.158Z,5292.00
2023-05-14T10:38:22.485Z,4676.00
2023-05-14T10:39:22.569Z,4960.00
2023-05-14T10:40:22.721Z,5200.00
2023-05-14T10:41:22.559Z,5088.00
2023-05-14T10:42:22.481Z,5328.00
2023-05-14T10:43:22.563Z,5044.00
2023-05-14T10:44:22.463Z,4648.00
2023-05-14T10:45:22.381Z,4496.00
2023-05-14T10:46:22.450Z,4348.00
2023-05-14T10:47:22.375Z,4332.00
2023-05-14T10:48:22.445Z,4604.00
2023-05-14T10:49:36.094Z,4408.00
2023-05-14T10:50:23.775Z,4064.00
2023-05-14T10:51:26.473Z,4156.00
2023-05-14T10:52:22.366Z,4356.00
2023-05-14T10:53:22.332Z,4740.00
2023-05-14T10:54:22.759Z,4672.00
2023-05-14T10:55:22.294Z,4836.00
2023-05-14T10:56:22.425Z,4792.00
2023-05-14T10:57:22.553Z,4688.00
2023-05-14T10:58:22.641Z,4576.00
2023-05-14T10:59:22.238Z,4224.00
2023-05-14T11:00:22.571Z,3836.00
2023-05-14T11:01:22.382Z,3504.00
2023-05-14T11:02:22.268Z,3256.00
2023-05-14T11:03:22.302Z,3244.00
2023-05-14T11:04:22.220Z,3392.00
2023-05-14T11:05:22.192Z,3572.00
2023-05-14T11:06:22.284Z,3720.00
2023-05-14T11:07:22.139Z,3940.00
2023-05-14T11:08:24.820Z,4168.00
2023-05-14T11:09:22.162Z,4428.00
2023-05-14T11:10:22.508Z,4556.00
2023-05-14T11:11:22.182Z,4340.00
2023-05-14T11:12:22.131Z,4716.00
2023-05-14T11:13:22.100Z,4572.00
2023-05-14T11:14:22.183Z,4308.00
2023-05-14T11:15:22.208Z,4132.00
2023-05-14T11:16:23.685Z,4112.00
2023-05-14T11:17:22.233Z,4004.00
2023-05-14T11:18:22.233Z,3884.00
2023-05-14T11:19:22.026Z,3908.00
2023-05-14T11:20:22.353Z,3944.00
2023-05-14T11:21:22.026Z,3976.00
2023-05-14T11:22:22.254Z,4108.00
2023-05-14T11:23:21.983Z,4300.00
2023-05-14T11:24:21.995Z,4456.00
2023-05-14T11:25:21.991Z,4580.00
2023-05-14T11:26:21.993Z,4624.00
2023-05-14T11:27:21.904Z,4680.00
2023-05-14T11:28:21.948Z,4668.00
2023-05-14T11:29:22.002Z,4432.00
2023-05-14T11:30:22.100Z,4700.00
2023-05-14T11:31:21.927Z,5540.00
2023-05-14T11:32:21.974Z,5940.00
2023-05-14T11:33:21.862Z,5968.00
2023-05-14T11:34:21.878Z,5816.00
2023-05-14T11:35:21.852Z,5456.00
2023-05-14T11:36:21.840Z,5592.00
2023-05-14T11:37:22.136Z,5672.00
2023-05-14T11:38:21.908Z,5744.00
2023-05-14T11:39:22.253Z,5872.00
2023-05-14T11:40:22.483Z,6144.00
2023-05-14T11:41:21.981Z,6308.00
2023-05-14T11:42:21.810Z,6348.00
2023-05-14T11:43:21.741Z,6632.00
2023-05-14T11:44:21.751Z,7196.00
2023-05-14T11:45:21.752Z,8000.00
2023-05-14T11:46:21.858Z,9044.00
2023-05-14T11:47:21.694Z,9812.00
2023-05-14T11:48:21.714Z,10064.00
2023-05-14T11:49:21.668Z,9600.00
2023-05-14T11:50:21.836Z,9496.00
2023-05-14T11:51:21.647Z,9316.00
2023-05-14T11:52:21.694Z,8912.00
2023-05-14T11:53:21.648Z,8576.00
2023-05-14T11:54:21.636Z,7848.00
2023-05-14T11:55:21.640Z,7340.00
2023-05-14T11:56:21.604Z,6512.00
2023-05-14T11:57:21.614Z,5784.00
2023-05-14T11:58:21.795Z,5280.00
2023-05-14T11:59:21.563Z,4944.00
2023-05-14T12:00:22.047Z,4768.00
2023-05-14T12:01:21.694Z,4524.00
2023-05-14T12:02:22.275Z,4380.00
2023-05-14T12:03:22.426Z,3996.00
2023-05-14T12:04:21.571Z,3460.00
2023-05-14T12:05:22.022Z,3164.00
2023-05-14T12:06:21.516Z,3056.00
2023-05-14T12:07:21.623Z,3028.00
2023-05-14T12:08:21.565Z,2932.00
2023-05-14T12:09:21.601Z,2792.00
2023-05-14T12:10:21.768Z,2724.00
2023-05-14T12:11:21.432Z,2740.00
2023-05-14T12:12:21.452Z,2852.00
2023-05-14T12:13:21.452Z,3096.00
2023-05-14T12:14:21.620Z,3508.00
2023-05-14T12:15:21.410Z,4036.00
2023-05-14T12:16:21.463Z,4600.00
2023-05-14T12:17:21.442Z,5000.00
2023-05-14T12:18:25.024Z,5268.00
2023-05-14T12:19:21.572Z,5356.00
2023-05-14T12:20:21.455Z,5376.00
2023-05-14T12:21:21.339Z,5440.00
2023-05-14T12:22:21.350Z,5532.00
2023-05-14T12:23:21.304Z,5592.00
2023-05-14T12:24:21.324Z,5536.00
2023-05-14T12:25:21.399Z,5692.00
2023-05-14T12:26:21.299Z,5844.00
2023-05-14T12:27:21.248Z,5892.00